sensor_id;sensor_type;location;lat;lon;timestamp;P1;durP1;ratioP1;P2;durP2;ratioP2
41167;SDS011;26906;45.658;9.272;2023-07-31T05:37:13;5.22;;;4.45;;
41167;SDS011;26906;45.658;9.272;2023-07-31T05:39:39;5.43;;;4.68;;
41167;SDS011;26906;45.658;9.272;2023-07-31T05:42:05;8.20;;;4.93;;
41167;SDS011;26906;45.658;9.272;2023-07-31T05:44:30;6.25;;;4.95;;
41167;SDS011;26906;45.658;9.272;2023-07-31T05:46:56;5.95;;;5.05;;
41167;SDS011;26906;45.658;9.272;2023-07-31T05:49:22;6.03;;;5.05;;
41167;SDS011;26906;45.658;9.272;2023-07-31T05:51:48;8.23;;;5.20;;
41167;SDS011;26906;45.658;9.272;2023-07-31T05:54:14;5.70;;;4.57;;
41167;SDS011;26906;45.658;9.272;2023-07-31T05:56:39;7.65;;;4.85;;
41167;SDS011;26906;45.658;9.272;2023-07-31T05:59:05;5.78;;;4.32;;
41167;SDS011;26906;45.658;9.272;2023-07-31T06:01:31;5.88;;;4.70;;
41167;SDS011;26906;45.658;9.272;2023-07-31T06:03:57;7.20;;;4.60;;
41167;SDS011;26906;45.658;9.272;2023-07-31T06:06:22;7.10;;;4.47;;
41167;SDS011;26906;45.658;9.272;2023-07-31T06:08:49;5.57;;;4.50;;
41167;SDS011;26906;45.658;9.272;2023-07-31T06:11:15;6.82;;;4.60;;
41167;SDS011;26906;45.658;9.272;2023-07-31T06:13:40;6.88;;;4.15;;
41167;SDS011;26906;45.658;9.272;2023-07-31T06:16:06;6.68;;;4.50;;
41167;SDS011;26906;45.658;9.272;2023-07-31T06:18:32;5.85;;;4.05;;
41167;SDS011;26906;45.658;9.272;2023-07-31T06:20:58;5.55;;;4.00;;
41167;SDS011;26906;45.658;9.272;2023-07-31T06:23:25;6.03;;;4.30;;
41167;SDS011;26906;45.658;9.272;2023-07-31T06:25:51;5.30;;;4.30;;
41167;SDS011;26906;45.658;9.272;2023-07-31T06:28:16;6.28;;;4.72;;
41167;SDS011;26906;45.658;9.272;2023-07-31T06:30:42;5.35;;;4.18;;
41167;SDS011;26906;45.658;9.272;2023-07-31T06:33:08;5.20;;;4.43;;
41167;SDS011;26906;45.658;9.272;2023-07-31T06:35:34;5.65;;;4.75;;
41167;SDS011;26906;45.658;9.272;2023-07-31T06:38:01;6.97;;;4.40;;
41167;SDS011;26906;45.658;9.272;2023-07-31T06:40:29;7.22;;;4.63;;
41167;SDS011;26906;45.658;9.272;2023-07-31T06:42:55;5.90;;;4.53;;
41167;SDS011;26906;45.658;9.272;2023-07-31T06:45:20;5.20;;;4.68;;
41167;SDS011;26906;45.658;9.272;2023-07-31T06:47:47;5.75;;;5.13;;
41167;SDS011;26906;45.658;9.272;2023-07-31T06:50:12;6.35;;;4.63;;
41167;SDS011;26906;45.658;9.272;2023-07-31T06:52:41;9.95;;;4.32;;
41167;SDS011;26906;45.658;9.272;2023-07-31T06:55:17;5.47;;;4.85;;
41167;SDS011;26906;45.658;9.272;2023-07-31T06:57:44;5.07;;;4.57;;
41167;SDS011;26906;45.658;9.272;2023-07-31T07:00:10;6.20;;;4.90;;
41167;SDS011;26906;45.658;9.272;2023-07-31T07:02:36;6.35;;;4.25;;
41167;SDS011;26906;45.658;9.272;2023-07-31T07:05:02;8.10;;;4.18;;
41167;SDS011;26906;45.658;9.272;2023-07-31T07:07:27;5.30;;;4.32;;
41167;SDS011;26906;45.658;9.272;2023-07-31T07:09:53;6.05;;;3.92;;
41167;SDS011;26906;45.658;9.272;2023-07-31T07:12:20;6.68;;;3.70;;
41167;SDS011;26906;45.658;9.272;2023-07-31T07:14:46;4.40;;;3.95;;
41167;SDS011;26906;45.658;9.272;2023-07-31T07:17:13;5.50;;;3.50;;
41167;SDS011;26906;45.658;9.272;2023-07-31T07:19:41;5.72;;;3.70;;
41167;SDS011;26906;45.658;9.272;2023-07-31T07:22:07;5.88;;;3.63;;
41167;SDS011;26906;45.658;9.272;2023-07-31T07:24:33;6.22;;;3.58;;
41167;SDS011;26906;45.658;9.272;2023-07-31T07:26:58;8.35;;;3.55;;
41167;SDS011;26906;45.658;9.272;2023-07-31T07:29:24;4.47;;;3.47;;
41167;SDS011;26906;45.658;9.272;2023-07-31T07:31:50;4.45;;;3.03;;
41167;SDS011;26906;45.658;9.272;2023-07-31T07:34:16;3.58;;;3.28;;
41167;SDS011;26906;45.658;9.272;2023-07-31T07:36:41;5.53;;;2.72;;
41167;SDS011;26906;45.658;9.272;2023-07-31T07:39:08;3.38;;;2.70;;
41167;SDS011;26906;45.658;9.272;2023-07-31T07:41:35;3.03;;;2.70;;
41167;SDS011;26906;45.658;9.272;2023-07-31T07:44:00;2.60;;;2.15;;
41167;SDS011;26906;45.658;9.272;2023-07-31T07:46:26;2.88;;;2.15;;
41167;SDS011;26906;45.658;9.272;2023-07-31T07:48:52;5.47;;;2.30;;
41167;SDS011;26906;45.658;9.272;2023-07-31T07:51:17;3.47;;;2.30;;
41167;SDS011;26906;45.658;9.272;2023-07-31T07:53:43;3.10;;;2.00;;
41167;SDS011;26906;45.658;9.272;2023-07-31T07:56:09;1.70;;;1.60;;
41167;SDS011;26906;45.658;9.272;2023-07-31T07:58:34;3.10;;;1.80;;
41167;SDS011;26906;45.658;9.272;2023-07-31T08:01:00;2.20;;;1.77;;
41167;SDS011;26906;45.658;9.272;2023-07-31T08:03:25;3.03;;;1.52;;
41167;SDS011;26906;45.658;9.272;2023-07-31T08:05:51;2.28;;;1.50;;
41167;SDS011;26906;45.658;9.272;2023-07-31T08:08:17;1.40;;;1.30;;
41167;SDS011;26906;45.658;9.272;2023-07-31T08:10:44;3.70;;;1.50;;
41167;SDS011;26906;45.658;9.272;2023-07-31T08:13:11;2.42;;;1.90;;
41167;SDS011;26906;45.658;9.272;2023-07-31T08:15:37;2.95;;;1.70;;
41167;SDS011;26906;45.658;9.272;2023-07-31T08:18:02;1.95;;;1.75;;
41167;SDS011;26906;45.658;9.272;2023-07-31T08:20:28;2.60;;;1.70;;
41167;SDS011;26906;45.658;9.272;2023-07-31T08:22:54;2.65;;;1.45;;
41167;SDS011;26906;45.658;9.272;2023-07-31T08:25:20;3.72;;;1.85;;
41167;SDS011;26906;45.658;9.272;2023-07-31T08:27:45;4.07;;;1.88;;
41167;SDS011;26906;45.658;9.272;2023-07-31T08:30:12;3.45;;;1.70;;
41167;SDS011;26906;45.658;9.272;2023-07-31T08:32:37;2.65;;;1.67;;
41167;SDS011;26906;45.658;9.272;2023-07-31T08:35:04;2.30;;;1.90;;
41167;SDS011;26906;45.658;9.272;2023-07-31T08:37:30;2.08;;;1.80;;
41167;SDS011;26906;45.658;9.272;2023-07-31T08:39:55;1.80;;;1.70;;
41167;SDS011;26906;45.658;9.272;2023-07-31T08:42:21;1.95;;;1.75;;
41167;SDS011;26906;45.658;9.272;2023-07-31T08:44:47;2.30;;;1.80;;
41167;SDS011;26906;45.658;9.272;2023-07-31T08:47:14;3.00;;;1.80;;
41167;SDS011;26906;45.658;9.272;2023-07-31T08:49:41;3.08;;;1.80;;
41167;SDS011;26906;45.658;9.272;2023-07-31T08:52:08;2.35;;;1.70;;
41167;SDS011;26906;45.658;9.272;2023-07-31T08:54:35;5.05;;;1.70;;
41167;SDS011;26906;45.658;9.272;2023-07-31T08:57:00;2.80;;;1.95;;
41167;SDS011;26906;45.658;9.272;2023-07-31T08:59:28;8.82;;;1.85;;
41167;SDS011;26906;45.658;9.272;2023-07-31T09:01:57;3.15;;;1.75;;
41167;SDS011;26906;45.658;9.272;2023-07-31T09:04:27;2.63;;;2.00;;
41167;SDS011;26906;45.658;9.272;2023-07-31T09:06:55;2.55;;;2.10;;
41167;SDS011;26906;45.658;9.272;2023-07-31T09:09:25;2.33;;;1.90;;
41167;SDS011;26906;45.658;9.272;2023-07-31T09:11:50;3.40;;;2.00;;
41167;SDS011;26906;45.658;9.272;2023-07-31T09:14:17;2.35;;;2.13;;
41167;SDS011;26906;45.658;9.272;2023-07-31T09:16:53;2.63;;;2.10;;
41167;SDS011;26906;45.658;9.272;2023-07-31T09:19:33;3.00;;;2.40;;
41167;SDS011;26906;45.658;9.272;2023-07-31T09:22:03;4.82;;;2.50;;
41167;SDS011;26906;45.658;9.272;2023-07-31T09:24:31;4.43;;;2.20;;
41167;SDS011;26906;45.658;9.272;2023-07-31T09:26:59;3.38;;;2.25;;
41167;SDS011;26906;45.658;9.272;2023-07-31T09:29:26;3.95;;;2.15;;
41167;SDS011;26906;45.658;9.272;2023-07-31T09:31:53;3.53;;;2.30;;
41167;SDS011;26906;45.658;9.272;2023-07-31T09:34:20;3.30;;;2.30;;
41167;SDS011;26906;45.658;9.272;2023-07-31T09:37:03;2.92;;;2.10;;
41167;SDS011;26906;45.658;9.272;2023-07-31T09:39:30;2.85;;;2.33;;
41167;SDS011;26906;45.658;9.272;2023-07-31T09:41:56;3.25;;;2.22;;
41167;SDS011;26906;45.658;9.272;2023-07-31T09:44:36;4.10;;;2.60;;
41167;SDS011;26906;45.658;9.272;2023-07-31T09:47:06;4.57;;;2.83;;
41167;SDS011;26906;45.658;9.272;2023-07-31T09:49:31;4.15;;;2.50;;
41167;SDS011;26906;45.658;9.272;2023-07-31T09:51:57;3.67;;;2.30;;
41167;SDS011;26906;45.658;9.272;2023-07-31T09:54:23;3.15;;;2.50;;
41167;SDS011;26906;45.658;9.272;2023-07-31T09:56:48;2.50;;;2.30;;
41167;SDS011;26906;45.658;9.272;2023-07-31T09:59:15;4.13;;;2.70;;
41167;SDS011;26906;45.658;9.272;2023-07-31T10:01:43;3.30;;;2.50;;
41167;SDS011;26906;45.658;9.272;2023-07-31T10:04:11;2.67;;;2.25;;
41167;SDS011;26906;45.658;9.272;2023-07-31T10:06:40;2.95;;;2.45;;
41167;SDS011;26906;45.658;9.272;2023-07-31T10:09:09;4.32;;;2.90;;
41167;SDS011;26906;45.658;9.272;2023-07-31T10:11:38;4.78;;;3.45;;
41167;SDS011;26906;45.658;9.272;2023-07-31T10:14:09;5.82;;;2.70;;
41167;SDS011;26906;45.658;9.272;2023-07-31T10:16:37;5.03;;;2.50;;
41167;SDS011;26906;45.658;9.272;2023-07-31T10:19:03;4.43;;;2.55;;
41167;SDS011;26906;45.658;9.272;2023-07-31T10:21:31;4.22;;;2.70;;
41167;SDS011;26906;45.658;9.272;2023-07-31T10:24:01;3.88;;;2.92;;
41167;SDS011;26906;45.658;9.272;2023-07-31T10:26:28;3.30;;;2.92;;
41167;SDS011;26906;45.658;9.272;2023-07-31T10:28:55;3.40;;;2.78;;
41167;SDS011;26906;45.658;9.272;2023-07-31T10:31:22;3.63;;;2.38;;
41167;SDS011;26906;45.658;9.272;2023-07-31T10:33:50;3.70;;;2.80;;
41167;SDS011;26906;45.658;9.272;2023-07-31T10:36:17;4.10;;;2.60;;
41167;SDS011;26906;45.658;9.272;2023-07-31T10:38:44;4.65;;;2.80;;
41167;SDS011;26906;45.658;9.272;2023-07-31T10:41:11;3.63;;;2.75;;
41167;SDS011;26906;45.658;9.272;2023-07-31T10:43:38;4.13;;;2.58;;
41167;SDS011;26906;45.658;9.272;2023-07-31T10:46:07;4.00;;;3.00;;
41167;SDS011;26906;45.658;9.272;2023-07-31T10:48:34;3.03;;;2.70;;
41167;SDS011;26906;45.658;9.272;2023-07-31T10:51:06;3.35;;;2.88;;
41167;SDS011;26906;45.658;9.272;2023-07-31T10:53:33;4.03;;;3.20;;
41167;SDS011;26906;45.658;9.272;2023-07-31T10:58:29;3.90;;;3.20;;
41167;SDS011;26906;45.658;9.272;2023-07-31T11:00:57;4.13;;;2.72;;
41167;SDS011;26906;45.658;9.272;2023-07-31T11:03:26;3.00;;;2.80;;
41167;SDS011;26906;45.658;9.272;2023-07-31T11:06:06;3.63;;;2.85;;
41167;SDS011;26906;45.658;9.272;2023-07-31T11:08:33;4.03;;;3.13;;
41167;SDS011;26906;45.658;9.272;2023-07-31T11:13:33;4.65;;;3.17;;
41167;SDS011;26906;45.658;9.272;2023-07-31T11:16:15;3.63;;;3.15;;
41167;SDS011;26906;45.658;9.272;2023-07-31T11:18:42;4.57;;;2.85;;
41167;SDS011;26906;45.658;9.272;2023-07-31T11:21:27;5.38;;;3.05;;
41167;SDS011;26906;45.658;9.272;2023-07-31T11:23:55;4.13;;;2.85;;
41167;SDS011;26906;45.658;9.272;2023-07-31T11:26:23;3.42;;;2.72;;
41167;SDS011;26906;45.658;9.272;2023-07-31T11:28:49;3.78;;;2.72;;
41167;SDS011;26906;45.658;9.272;2023-07-31T11:31:15;3.30;;;2.80;;
41167;SDS011;26906;45.658;9.272;2023-07-31T11:33:42;3.80;;;2.75;;
41167;SDS011;26906;45.658;9.272;2023-07-31T11:36:14;3.13;;;2.83;;
41167;SDS011;26906;45.658;9.272;2023-07-31T11:38:41;5.53;;;2.85;;
41167;SDS011;26906;45.658;9.272;2023-07-31T11:41:08;5.47;;;3.10;;
41167;SDS011;26906;45.658;9.272;2023-07-31T11:43:34;3.65;;;3.13;;
41167;SDS011;26906;45.658;9.272;2023-07-31T11:46:01;3.45;;;2.97;;
41167;SDS011;26906;45.658;9.272;2023-07-31T11:48:32;4.00;;;2.40;;
41167;SDS011;26906;45.658;9.272;2023-07-31T11:51:01;3.67;;;3.03;;
41167;SDS011;26906;45.658;9.272;2023-07-31T11:56:20;6.72;;;3.97;;
41167;SDS011;26906;45.658;9.272;2023-07-31T11:58:47;4.95;;;3.53;;
41167;SDS011;26906;45.658;9.272;2023-07-31T12:01:19;3.50;;;3.20;;
41167;SDS011;26906;45.658;9.272;2023-07-31T12:03:46;4.82;;;3.10;;
41167;SDS011;26906;45.658;9.272;2023-07-31T12:06:12;3.45;;;3.00;;
41167;SDS011;26906;45.658;9.272;2023-07-31T12:08:38;2.95;;;2.50;;
41167;SDS011;26906;45.658;9.272;2023-07-31T12:11:04;3.88;;;3.42;;
41167;SDS011;26906;45.658;9.272;2023-07-31T12:13:32;4.00;;;3.20;;
41167;SDS011;26906;45.658;9.272;2023-07-31T12:15:59;3.97;;;3.25;;
41167;SDS011;26906;45.658;9.272;2023-07-31T12:18:27;4.63;;;3.47;;
41167;SDS011;26906;45.658;9.272;2023-07-31T12:20:56;4.32;;;2.97;;
41167;SDS011;26906;45.658;9.272;2023-07-31T12:23:25;3.45;;;3.15;;
41167;SDS011;26906;45.658;9.272;2023-07-31T12:28:28;4.43;;;3.25;;
41167;SDS011;26906;45.658;9.272;2023-07-31T12:30:56;11.18;;;3.55;;
41167;SDS011;26906;45.658;9.272;2023-07-31T12:33:27;5.20;;;3.60;;
41167;SDS011;26906;45.658;9.272;2023-07-31T12:36:03;3.50;;;3.20;;
41167;SDS011;26906;45.658;9.272;2023-07-31T12:38:31;5.97;;;3.25;;
41167;SDS011;26906;45.658;9.272;2023-07-31T12:40:57;5.75;;;3.05;;
41167;SDS011;26906;45.658;9.272;2023-07-31T12:43:23;3.40;;;3.00;;
41167;SDS011;26906;45.658;9.272;2023-07-31T12:45:48;3.55;;;2.95;;
41167;SDS011;26906;45.658;9.272;2023-07-31T12:48:14;5.47;;;3.10;;
41167;SDS011;26906;45.658;9.272;2023-07-31T12:50:40;3.53;;;2.70;;
41167;SDS011;26906;45.658;9.272;2023-07-31T12:53:05;3.30;;;3.00;;
41167;SDS011;26906;45.658;9.272;2023-07-31T12:55:32;3.65;;;2.78;;
41167;SDS011;26906;45.658;9.272;2023-07-31T12:57:59;4.55;;;3.40;;
41167;SDS011;26906;45.658;9.272;2023-07-31T13:00:26;6.78;;;3.22;;
41167;SDS011;26906;45.658;9.272;2023-07-31T13:02:52;4.45;;;3.20;;
41167;SDS011;26906;45.658;9.272;2023-07-31T13:05:17;4.82;;;2.97;;
41167;SDS011;26906;45.658;9.272;2023-07-31T13:07:45;4.22;;;3.30;;
41167;SDS011;26906;45.658;9.272;2023-07-31T13:10:11;4.15;;;3.50;;
41167;SDS011;26906;45.658;9.272;2023-07-31T13:12:38;5.63;;;2.95;;
41167;SDS011;26906;45.658;9.272;2023-07-31T13:15:04;3.90;;;3.08;;
41167;SDS011;26906;45.658;9.272;2023-07-31T13:17:31;3.58;;;3.20;;
41167;SDS011;26906;45.658;9.272;2023-07-31T13:19:57;4.60;;;3.67;;
41167;SDS011;26906;45.658;9.272;2023-07-31T13:22:23;5.03;;;3.80;;
41167;SDS011;26906;45.658;9.272;2023-07-31T13:24:48;4.63;;;4.18;;
41167;SDS011;26906;45.658;9.272;2023-07-31T13:27:14;4.50;;;4.10;;
41167;SDS011;26906;45.658;9.272;2023-07-31T13:29:45;5.85;;;3.35;;
41167;SDS011;26906;45.658;9.272;2023-07-31T13:32:15;3.58;;;3.28;;
41167;SDS011;26906;45.658;9.272;2023-07-31T13:34:42;4.53;;;3.03;;
41167;SDS011;26906;45.658;9.272;2023-07-31T13:37:08;3.55;;;3.15;;
41167;SDS011;26906;45.658;9.272;2023-07-31T13:39:34;4.45;;;3.60;;
41167;SDS011;26906;45.658;9.272;2023-07-31T13:42:00;4.47;;;3.65;;
41167;SDS011;26906;45.658;9.272;2023-07-31T13:44:27;3.85;;;3.55;;
41167;SDS011;26906;45.658;9.272;2023-07-31T13:46:53;5.15;;;3.38;;
41167;SDS011;26906;45.658;9.272;2023-07-31T13:49:19;3.67;;;3.13;;
41167;SDS011;26906;45.658;9.272;2023-07-31T13:51:44;4.32;;;3.17;;
41167;SDS011;26906;45.658;9.272;2023-07-31T13:54:11;5.10;;;3.33;;
41167;SDS011;26906;45.658;9.272;2023-07-31T13:56:37;5.63;;;3.35;;
41167;SDS011;26906;45.658;9.272;2023-07-31T13:59:03;4.10;;;3.22;;
41167;SDS011;26906;45.658;9.272;2023-07-31T14:01:29;6.22;;;3.65;;
41167;SDS011;26906;45.658;9.272;2023-07-31T14:03:56;4.15;;;3.53;;
41167;SDS011;26906;45.658;9.272;2023-07-31T14:06:22;4.53;;;3.08;;
41167;SDS011;26906;45.658;9.272;2023-07-31T14:08:47;5.35;;;3.30;;
41167;SDS011;26906;45.658;9.272;2023-07-31T14:11:13;4.78;;;3.53;;
41167;SDS011;26906;45.658;9.272;2023-07-31T14:13:39;3.95;;;3.40;;
41167;SDS011;26906;45.658;9.272;2023-07-31T14:16:04;5.30;;;3.10;;
41167;SDS011;26906;45.658;9.272;2023-07-31T14:18:30;5.57;;;3.45;;
41167;SDS011;26906;45.658;9.272;2023-07-31T14:20:55;4.93;;;3.30;;
41167;SDS011;26906;45.658;9.272;2023-07-31T14:23:21;3.75;;;3.35;;
41167;SDS011;26906;45.658;9.272;2023-07-31T14:25:47;3.08;;;2.78;;
41167;SDS011;26906;45.658;9.272;2023-07-31T14:28:13;6.60;;;4.00;;
41167;SDS011;26906;45.658;9.272;2023-07-31T14:30:39;3.58;;;3.28;;
41167;SDS011;26906;45.658;9.272;2023-07-31T14:33:04;7.82;;;4.10;;
41167;SDS011;26906;45.658;9.272;2023-07-31T14:35:30;4.60;;;3.47;;
41167;SDS011;26906;45.658;9.272;2023-07-31T14:37:56;6.60;;;3.60;;
41167;SDS011;26906;45.658;9.272;2023-07-31T14:40:22;4.05;;;3.40;;
41167;SDS011;26906;45.658;9.272;2023-07-31T14:42:47;4.47;;;3.30;;
41167;SDS011;26906;45.658;9.272;2023-07-31T14:45:13;12.07;;;3.70;;
41167;SDS011;26906;45.658;9.272;2023-07-31T14:47:39;4.32;;;3.60;;
41167;SDS011;26906;45.658;9.272;2023-07-31T14:50:04;3.70;;;3.40;;
41167;SDS011;26906;45.658;9.272;2023-07-31T14:52:30;4.10;;;3.40;;
41167;SDS011;26906;45.658;9.272;2023-07-31T14:54:56;4.53;;;3.15;;
41167;SDS011;26906;45.658;9.272;2023-07-31T14:57:22;4.28;;;3.75;;
41167;SDS011;26906;45.658;9.272;2023-07-31T14:59:47;4.53;;;3.22;;
41167;SDS011;26906;45.658;9.272;2023-07-31T15:02:14;3.35;;;3.05;;
41167;SDS011;26906;45.658;9.272;2023-07-31T15:04:40;5.03;;;3.28;;
41167;SDS011;26906;45.658;9.272;2023-07-31T15:07:06;4.90;;;3.20;;
41167;SDS011;26906;45.658;9.272;2023-07-31T15:09:32;4.45;;;2.75;;
41167;SDS011;26906;45.658;9.272;2023-07-31T15:11:57;4.95;;;3.05;;
41167;SDS011;26906;45.658;9.272;2023-07-31T15:14:24;4.57;;;3.08;;
41167;SDS011;26906;45.658;9.272;2023-07-31T15:16:49;3.28;;;2.97;;
41167;SDS011;26906;45.658;9.272;2023-07-31T15:19:15;3.95;;;3.03;;
41167;SDS011;26906;45.658;9.272;2023-07-31T15:21:41;3.97;;;3.08;;
41167;SDS011;26906;45.658;9.272;2023-07-31T15:24:07;4.43;;;3.03;;
41167;SDS011;26906;45.658;9.272;2023-07-31T15:26:33;4.07;;;3.10;;
41167;SDS011;26906;45.658;9.272;2023-07-31T15:29:02;4.55;;;3.40;;
41167;SDS011;26906;45.658;9.272;2023-07-31T15:31:33;3.75;;;3.10;;
41167;SDS011;26906;45.658;9.272;2023-07-31T15:33:59;3.22;;;2.92;;
41167;SDS011;26906;45.658;9.272;2023-07-31T15:36:25;3.50;;;3.20;;
41167;SDS011;26906;45.658;9.272;2023-07-31T15:38:50;6.90;;;4.47;;
41167;SDS011;26906;45.658;9.272;2023-07-31T15:41:17;4.47;;;3.25;;
41167;SDS011;26906;45.658;9.272;2023-07-31T15:43:43;4.78;;;3.33;;
41167;SDS011;26906;45.658;9.272;2023-07-31T15:46:09;6.28;;;3.22;;
41167;SDS011;26906;45.658;9.272;2023-07-31T15:48:35;3.33;;;3.03;;
41167;SDS011;26906;45.658;9.272;2023-07-31T15:51:01;4.78;;;3.33;;
41167;SDS011;26906;45.658;9.272;2023-07-31T15:53:28;3.38;;;3.03;;
41167;SDS011;26906;45.658;9.272;2023-07-31T15:55:54;4.50;;;3.47;;
41167;SDS011;26906;45.658;9.272;2023-07-31T15:58:20;5.47;;;3.70;;
41167;SDS011;26906;45.658;9.272;2023-07-31T16:00:46;4.40;;;2.97;;
41167;SDS011;26906;45.658;9.272;2023-07-31T16:03:12;3.70;;;3.40;;
41167;SDS011;26906;45.658;9.272;2023-07-31T16:05:37;4.97;;;3.35;;
41167;SDS011;26906;45.658;9.272;2023-07-31T16:08:03;5.20;;;3.50;;
41167;SDS011;26906;45.658;9.272;2023-07-31T16:10:29;3.53;;;3.22;;
41167;SDS011;26906;45.658;9.272;2023-07-31T16:12:54;4.88;;;3.60;;
41167;SDS011;26906;45.658;9.272;2023-07-31T16:15:20;4.03;;;3.13;;
41167;SDS011;26906;45.658;9.272;2023-07-31T16:17:47;3.60;;;3.30;;
41167;SDS011;26906;45.658;9.272;2023-07-31T16:20:12;5.93;;;4.20;;
41167;SDS011;26906;45.658;9.272;2023-07-31T16:22:38;4.30;;;3.63;;
41167;SDS011;26906;45.658;9.272;2023-07-31T16:25:05;5.05;;;3.45;;
41167;SDS011;26906;45.658;9.272;2023-07-31T16:27:31;4.35;;;3.60;;
41167;SDS011;26906;45.658;9.272;2023-07-31T16:29:57;4.05;;;3.38;;
41167;SDS011;26906;45.658;9.272;2023-07-31T16:32:26;4.40;;;3.63;;
41167;SDS011;26906;45.658;9.272;2023-07-31T16:34:57;6.30;;;3.45;;
41167;SDS011;26906;45.658;9.272;2023-07-31T16:37:23;6.40;;;3.70;;
41167;SDS011;26906;45.658;9.272;2023-07-31T16:39:49;4.03;;;3.63;;
41167;SDS011;26906;45.658;9.272;2023-07-31T16:42:17;4.45;;;3.25;;
41167;SDS011;26906;45.658;9.272;2023-07-31T16:44:43;4.15;;;3.47;;
41167;SDS011;26906;45.658;9.272;2023-07-31T16:47:09;4.18;;;3.58;;
41167;SDS011;26906;45.658;9.272;2023-07-31T16:49:35;6.15;;;3.20;;
41167;SDS011;26906;45.658;9.272;2023-07-31T16:52:01;6.35;;;3.13;;
41167;SDS011;26906;45.658;9.272;2023-07-31T16:54:26;4.75;;;3.67;;
41167;SDS011;26906;45.658;9.272;2023-07-31T16:56:52;3.70;;;3.30;;
41167;SDS011;26906;45.658;9.272;2023-07-31T16:59:18;3.60;;;3.30;;
41167;SDS011;26906;45.658;9.272;2023-07-31T17:01:45;4.05;;;3.65;;
41167;SDS011;26906;45.658;9.272;2023-07-31T17:04:11;4.18;;;3.20;;
41167;SDS011;26906;45.658;9.272;2023-07-31T17:06:37;4.95;;;3.60;;
41167;SDS011;26906;45.658;9.272;2023-07-31T17:09:03;3.85;;;3.38;;
41167;SDS011;26906;45.658;9.272;2023-07-31T17:11:29;3.78;;;3.30;;
41167;SDS011;26906;45.658;9.272;2023-07-31T17:13:55;5.35;;;3.33;;
41167;SDS011;26906;45.658;9.272;2023-07-31T17:16:21;5.00;;;3.42;;
41167;SDS011;26906;45.658;9.272;2023-07-31T17:18:47;4.80;;;3.42;;
41167;SDS011;26906;45.658;9.272;2023-07-31T17:21:13;3.45;;;3.00;;
41167;SDS011;26906;45.658;9.272;2023-07-31T17:23:39;4.72;;;3.40;;
41167;SDS011;26906;45.658;9.272;2023-07-31T17:26:06;5.22;;;3.88;;
41167;SDS011;26906;45.658;9.272;2023-07-31T17:28:34;4.53;;;3.50;;
41167;SDS011;26906;45.658;9.272;2023-07-31T17:31:00;4.97;;;3.78;;
41167;SDS011;26906;45.658;9.272;2023-07-31T17:33:25;3.65;;;3.35;;
41167;SDS011;26906;45.658;9.272;2023-07-31T17:35:51;4.68;;;3.65;;
41167;SDS011;26906;45.658;9.272;2023-07-31T17:38:16;3.97;;;3.67;;
41167;SDS011;26906;45.658;9.272;2023-07-31T17:40:42;4.55;;;3.45;;
41167;SDS011;26906;45.658;9.272;2023-07-31T17:43:08;3.90;;;3.42;;
41167;SDS011;26906;45.658;9.272;2023-07-31T17:45:34;4.57;;;3.20;;
41167;SDS011;26906;45.658;9.272;2023-07-31T17:48:00;5.15;;;3.60;;
41167;SDS011;26906;45.658;9.272;2023-07-31T17:50:26;4.57;;;3.42;;
41167;SDS011;26906;45.658;9.272;2023-07-31T17:52:51;6.60;;;3.45;;
41167;SDS011;26906;45.658;9.272;2023-07-31T17:55:17;5.15;;;3.60;;
41167;SDS011;26906;45.658;9.272;2023-07-31T17:57:43;5.03;;;3.55;;
41167;SDS011;26906;45.658;9.272;2023-07-31T18:00:09;4.40;;;4.00;;
41167;SDS011;26906;45.658;9.272;2023-07-31T18:02:36;6.88;;;4.50;;
41167;SDS011;26906;45.658;9.272;2023-07-31T18:05:06;3.83;;;3.42;;
41167;SDS011;26906;45.658;9.272;2023-07-31T18:07:32;5.47;;;3.63;;
41167;SDS011;26906;45.658;9.272;2023-07-31T18:09:58;4.30;;;3.90;;
41167;SDS011;26906;45.658;9.272;2023-07-31T18:12:25;4.38;;;3.97;;
41167;SDS011;26906;45.658;9.272;2023-07-31T18:14:52;3.90;;;3.58;;
41167;SDS011;26906;45.658;9.272;2023-07-31T18:17:18;3.60;;;3.28;;
41167;SDS011;26906;45.658;9.272;2023-07-31T18:19:44;4.88;;;3.70;;
41167;SDS011;26906;45.658;9.272;2023-07-31T18:22:09;4.43;;;3.55;;
41167;SDS011;26906;45.658;9.272;2023-07-31T18:24:35;4.60;;;3.45;;
41167;SDS011;26906;45.658;9.272;2023-07-31T18:27:03;3.78;;;3.30;;
41167;SDS011;26906;45.658;9.272;2023-07-31T18:29:29;5.25;;;3.63;;
41167;SDS011;26906;45.658;9.272;2023-07-31T18:31:55;4.15;;;3.63;;
41167;SDS011;26906;45.658;9.272;2023-07-31T18:34:20;5.63;;;3.42;;
41167;SDS011;26906;45.658;9.272;2023-07-31T18:36:46;5.32;;;3.30;;
41167;SDS011;26906;45.658;9.272;2023-07-31T18:39:12;4.82;;;3.40;;
41167;SDS011;26906;45.658;9.272;2023-07-31T18:41:38;3.90;;;3.20;;
41167;SDS011;26906;45.658;9.272;2023-07-31T18:44:05;4.90;;;3.78;;
41167;SDS011;26906;45.658;9.272;2023-07-31T18:46:31;4.13;;;3.65;;
41167;SDS011;26906;45.658;9.272;2023-07-31T18:48:56;4.50;;;3.42;;
41167;SDS011;26906;45.658;9.272;2023-07-31T18:51:22;4.00;;;3.60;;
41167;SDS011;26906;45.658;9.272;2023-07-31T18:53:48;5.22;;;3.80;;
41167;SDS011;26906;45.658;9.272;2023-07-31T18:56:16;5.22;;;3.72;;
41167;SDS011;26906;45.658;9.272;2023-07-31T18:58:42;4.43;;;3.40;;
41167;SDS011;26906;45.658;9.272;2023-07-31T19:01:08;3.95;;;3.58;;
41167;SDS011;26906;45.658;9.272;2023-07-31T19:03:33;4.05;;;3.42;;
41167;SDS011;26906;45.658;9.272;2023-07-31T19:06:03;4.00;;;3.60;;
41167;SDS011;26906;45.658;9.272;2023-07-31T19:08:29;4.40;;;4.00;;
41167;SDS011;26906;45.658;9.272;2023-07-31T19:10:56;6.00;;;3.90;;
41167;SDS011;26906;45.658;9.272;2023-07-31T19:13:23;4.32;;;3.80;;
41167;SDS011;26906;45.658;9.272;2023-07-31T19:15:48;4.47;;;4.07;;
41167;SDS011;26906;45.658;9.272;2023-07-31T19:18:14;4.57;;;4.03;;
41167;SDS011;26906;45.658;9.272;2023-07-31T19:20:40;4.45;;;3.80;;
41167;SDS011;26906;45.658;9.272;2023-07-31T19:23:06;4.40;;;3.95;;
41167;SDS011;26906;45.658;9.272;2023-07-31T19:25:32;5.55;;;4.03;;
41167;SDS011;26906;45.658;9.272;2023-07-31T19:27:58;3.97;;;3.67;;
41167;SDS011;26906;45.658;9.272;2023-07-31T19:30:24;5.03;;;4.22;;
41167;SDS011;26906;45.658;9.272;2023-07-31T19:32:50;5.47;;;4.22;;
41167;SDS011;26906;45.658;9.272;2023-07-31T19:35:16;6.30;;;4.13;;
41167;SDS011;26906;45.658;9.272;2023-07-31T19:37:42;5.35;;;3.67;;
41167;SDS011;26906;45.658;9.272;2023-07-31T19:40:08;5.47;;;4.47;;
41167;SDS011;26906;45.658;9.272;2023-07-31T19:42:34;6.32;;;4.40;;
41167;SDS011;26906;45.658;9.272;2023-07-31T19:45:03;4.97;;;4.43;;
41167;SDS011;26906;45.658;9.272;2023-07-31T19:47:29;6.28;;;4.40;;
41167;SDS011;26906;45.658;9.272;2023-07-31T19:49:55;5.22;;;4.20;;
41167;SDS011;26906;45.658;9.272;2023-07-31T19:52:21;10.05;;;4.65;;
41167;SDS011;26906;45.658;9.272;2023-07-31T19:54:47;9.75;;;4.65;;
41167;SDS011;26906;45.658;9.272;2023-07-31T19:57:13;6.10;;;4.68;;
41167;SDS011;26906;45.658;9.272;2023-07-31T19:59:38;5.38;;;4.40;;
41167;SDS011;26906;45.658;9.272;2023-07-31T20:02:04;5.68;;;4.18;;
41167;SDS011;26906;45.658;9.272;2023-07-31T20:04:31;5.72;;;4.75;;
41167;SDS011;26906;45.658;9.272;2023-07-31T20:06:57;5.93;;;4.53;;
41167;SDS011;26906;45.658;9.272;2023-07-31T20:09:22;5.47;;;4.60;;
41167;SDS011;26906;45.658;9.272;2023-07-31T20:11:48;4.45;;;4.05;;
41167;SDS011;26906;45.658;9.272;2023-07-31T20:14:14;6.32;;;4.03;;
41167;SDS011;26906;45.658;9.272;2023-07-31T20:16:41;6.88;;;4.60;;
41167;SDS011;26906;45.658;9.272;2023-07-31T20:19:08;5.28;;;3.72;;
41167;SDS011;26906;45.658;9.272;2023-07-31T20:21:37;6.40;;;4.32;;
41167;SDS011;26906;45.658;9.272;2023-07-31T20:24:08;6.05;;;4.70;;
41167;SDS011;26906;45.658;9.272;2023-07-31T20:26:34;6.60;;;4.68;;
41167;SDS011;26906;45.658;9.272;2023-07-31T20:29:00;6.65;;;5.45;;
41167;SDS011;26906;45.658;9.272;2023-07-31T20:31:26;6.40;;;5.78;;
